sensor_id;sensor_type;location;lat;lon;timestamp;P1;durP1;ratioP1;P2;durP2;ratioP2
75417;SDS011;63997;52.112;5.420;2024-02-16T00:01:41;3.80;;;1.58;;
75417;SDS011;63997;52.112;5.420;2024-02-16T00:04:07;3.92;;;1.50;;
75417;SDS011;63997;52.112;5.420;2024-02-16T00:06:34;4.38;;;1.48;;
75417;SDS011;63997;52.112;5.420;2024-02-16T00:09:01;2.90;;;1.80;;
75417;SDS011;63997;52.112;5.420;2024-02-16T00:11:27;4.47;;;1.50;;
75417;SDS011;63997;52.112;5.420;2024-02-16T00:13:55;3.30;;;1.70;;
75417;SDS011;63997;52.112;5.420;2024-02-16T00:16:22;3.03;;;1.70;;
75417;SDS011;63997;52.112;5.420;2024-02-16T00:18:48;5.65;;;2.10;;
75417;SDS011;63997;52.112;5.420;2024-02-16T00:21:15;8.40;;;2.10;;
75417;SDS011;63997;52.112;5.420;2024-02-16T00:23:43;3.10;;;1.73;;
75417;SDS011;63997;52.112;5.420;2024-02-16T00:26:11;3.75;;;1.70;;
75417;SDS011;63997;52.112;5.420;2024-02-16T00:28:37;7.30;;;1.83;;
75417;SDS011;63997;52.112;5.420;2024-02-16T00:31:04;3.90;;;1.80;;
75417;SDS011;63997;52.112;5.420;2024-02-16T00:33:32;3.43;;;1.70;;
75417;SDS011;63997;52.112;5.420;2024-02-16T00:36:00;3.70;;;1.90;;
75417;SDS011;63997;52.112;5.420;2024-02-16T00:38:26;3.63;;;1.70;;
75417;SDS011;63997;52.112;5.420;2024-02-16T00:40:53;3.90;;;1.90;;
75417;SDS011;63997;52.112;5.420;2024-02-16T00:43:19;3.47;;;1.92;;
75417;SDS011;63997;52.112;5.420;2024-02-16T00:45:46;2.87;;;1.73;;
75417;SDS011;63997;52.112;5.420;2024-02-16T00:48:13;4.40;;;2.00;;
75417;SDS011;63997;52.112;5.420;2024-02-16T00:50:40;3.10;;;1.77;;
75417;SDS011;63997;52.112;5.420;2024-02-16T00:53:09;3.58;;;2.40;;
75417;SDS011;63997;52.112;5.420;2024-02-16T00:55:35;3.00;;;1.90;;
75417;SDS011;63997;52.112;5.420;2024-02-16T00:58:03;5.10;;;1.97;;
75417;SDS011;63997;52.112;5.420;2024-02-16T01:00:30;2.95;;;2.20;;
75417;SDS011;63997;52.112;5.420;2024-02-16T01:02:57;6.38;;;1.98;;
75417;SDS011;63997;52.112;5.420;2024-02-16T01:05:23;3.65;;;1.63;;
75417;SDS011;63997;52.112;5.420;2024-02-16T01:07:50;4.35;;;2.08;;
75417;SDS011;63997;52.112;5.420;2024-02-16T01:10:17;5.23;;;1.60;;
75417;SDS011;63997;52.112;5.420;2024-02-16T01:12:44;4.15;;;1.83;;
75417;SDS011;63997;52.112;5.420;2024-02-16T01:15:10;5.65;;;1.60;;
75417;SDS011;63997;52.112;5.420;2024-02-16T01:17:37;3.72;;;1.70;;
75417;SDS011;63997;52.112;5.420;2024-02-16T01:20:05;5.10;;;1.92;;
75417;SDS011;63997;52.112;5.420;2024-02-16T01:22:37;4.73;;;2.10;;
75417;SDS011;63997;52.112;5.420;2024-02-16T01:25:05;2.95;;;1.77;;
75417;SDS011;63997;52.112;5.420;2024-02-16T01:27:34;4.70;;;1.70;;
75417;SDS011;63997;52.112;5.420;2024-02-16T01:30:01;3.90;;;1.83;;
75417;SDS011;63997;52.112;5.420;2024-02-16T01:32:29;3.75;;;2.00;;
75417;SDS011;63997;52.112;5.420;2024-02-16T01:34:56;5.13;;;1.83;;
75417;SDS011;63997;52.112;5.420;2024-02-16T01:37:23;9.10;;;1.95;;
75417;SDS011;63997;52.112;5.420;2024-02-16T01:39:49;3.00;;;1.60;;
75417;SDS011;63997;52.112;5.420;2024-02-16T01:42:16;5.15;;;1.83;;
75417;SDS011;63997;52.112;5.420;2024-02-16T01:44:42;3.85;;;1.80;;
75417;SDS011;63997;52.112;5.420;2024-02-16T01:47:09;5.50;;;1.80;;
75417;SDS011;63997;52.112;5.420;2024-02-16T01:49:36;5.78;;;1.92;;
75417;SDS011;63997;52.112;5.420;2024-02-16T01:52:03;2.75;;;1.75;;
75417;SDS011;63997;52.112;5.420;2024-02-16T01:54:30;4.60;;;2.10;;
75417;SDS011;63997;52.112;5.420;2024-02-16T01:56:57;4.97;;;2.53;;
75417;SDS011;63997;52.112;5.420;2024-02-16T01:59:26;3.63;;;1.63;;
75417;SDS011;63997;52.112;5.420;2024-02-16T02:01:52;3.03;;;2.00;;
75417;SDS011;63997;52.112;5.420;2024-02-16T02:04:19;4.15;;;2.15;;
75417;SDS011;63997;52.112;5.420;2024-02-16T02:06:46;5.68;;;2.20;;
75417;SDS011;63997;52.112;5.420;2024-02-16T02:09:13;4.20;;;2.10;;
75417;SDS011;63997;52.112;5.420;2024-02-16T02:11:39;3.80;;;1.97;;
75417;SDS011;63997;52.112;5.420;2024-02-16T02:14:06;2.92;;;2.03;;
75417;SDS011;63997;52.112;5.420;2024-02-16T02:16:33;6.00;;;1.80;;
75417;SDS011;63997;52.112;5.420;2024-02-16T02:19:13;8.10;;;2.08;;
75417;SDS011;63997;52.112;5.420;2024-02-16T02:21:39;3.47;;;1.70;;
75417;SDS011;63997;52.112;5.420;2024-02-16T02:24:06;2.73;;;1.77;;
75417;SDS011;63997;52.112;5.420;2024-02-16T02:26:35;2.88;;;1.73;;
75417;SDS011;63997;52.112;5.420;2024-02-16T02:29:02;4.38;;;2.20;;
75417;SDS011;63997;52.112;5.420;2024-02-16T02:31:28;4.40;;;1.80;;
75417;SDS011;63997;52.112;5.420;2024-02-16T02:33:55;2.58;;;2.20;;
75417;SDS011;63997;52.112;5.420;2024-02-16T02:36:22;4.13;;;2.57;;
75417;SDS011;63997;52.112;5.420;2024-02-16T02:38:49;6.57;;;1.80;;
75417;SDS011;63997;52.112;5.420;2024-02-16T02:41:16;3.28;;;1.80;;
75417;SDS011;63997;52.112;5.420;2024-02-16T02:43:45;7.25;;;2.47;;
75417;SDS011;63997;52.112;5.420;2024-02-16T02:46:15;4.90;;;1.95;;
75417;SDS011;63997;52.112;5.420;2024-02-16T02:48:43;3.57;;;1.90;;
75417;SDS011;63997;52.112;5.420;2024-02-16T02:51:17;3.80;;;2.17;;
75417;SDS011;63997;52.112;5.420;2024-02-16T02:53:44;3.65;;;1.90;;
75417;SDS011;63997;52.112;5.420;2024-02-16T02:56:10;3.97;;;1.75;;
75417;SDS011;63997;52.112;5.420;2024-02-16T02:58:38;6.88;;;2.00;;
75417;SDS011;63997;52.112;5.420;2024-02-16T03:01:05;6.23;;;2.20;;
75417;SDS011;63997;52.112;5.420;2024-02-16T03:03:34;6.07;;;1.80;;
75417;SDS011;63997;52.112;5.420;2024-02-16T03:06:00;4.53;;;1.60;;
75417;SDS011;63997;52.112;5.420;2024-02-16T03:08:27;3.03;;;2.00;;
75417;SDS011;63997;52.112;5.420;2024-02-16T03:10:54;4.93;;;1.80;;
75417;SDS011;63997;52.112;5.420;2024-02-16T03:13:20;6.93;;;1.60;;
75417;SDS011;63997;52.112;5.420;2024-02-16T03:15:47;4.55;;;2.05;;
75417;SDS011;63997;52.112;5.420;2024-02-16T03:18:14;2.05;;;1.63;;
75417;SDS011;63997;52.112;5.420;2024-02-16T03:20:41;3.45;;;1.92;;
75417;SDS011;63997;52.112;5.420;2024-02-16T03:23:12;5.50;;;2.08;;
75417;SDS011;63997;52.112;5.420;2024-02-16T03:25:38;3.67;;;2.20;;
75417;SDS011;63997;52.112;5.420;2024-02-16T03:28:05;3.25;;;2.00;;
75417;SDS011;63997;52.112;5.420;2024-02-16T03:30:35;3.05;;;1.95;;
75417;SDS011;63997;52.112;5.420;2024-02-16T03:33:01;2.28;;;1.67;;
75417;SDS011;63997;52.112;5.420;2024-02-16T03:35:28;3.40;;;2.15;;
75417;SDS011;63997;52.112;5.420;2024-02-16T03:37:55;4.90;;;1.87;;
75417;SDS011;63997;52.112;5.420;2024-02-16T03:40:22;4.30;;;2.13;;
75417;SDS011;63997;52.112;5.420;2024-02-16T03:42:51;9.30;;;2.13;;
75417;SDS011;63997;52.112;5.420;2024-02-16T03:45:18;7.20;;;2.40;;
75417;SDS011;63997;52.112;5.420;2024-02-16T03:47:45;6.00;;;2.38;;
75417;SDS011;63997;52.112;5.420;2024-02-16T03:50:11;6.87;;;2.30;;
75417;SDS011;63997;52.112;5.420;2024-02-16T03:52:40;4.38;;;2.03;;
75417;SDS011;63997;52.112;5.420;2024-02-16T03:55:07;4.65;;;1.88;;
75417;SDS011;63997;52.112;5.420;2024-02-16T03:57:34;3.38;;;1.75;;
75417;SDS011;63997;52.112;5.420;2024-02-16T04:00:00;4.38;;;1.92;;
75417;SDS011;63997;52.112;5.420;2024-02-16T04:02:28;7.47;;;2.03;;
75417;SDS011;63997;52.112;5.420;2024-02-16T04:04:55;4.93;;;1.92;;
75417;SDS011;63997;52.112;5.420;2024-02-16T04:07:21;5.35;;;2.00;;
75417;SDS011;63997;52.112;5.420;2024-02-16T04:09:48;2.92;;;2.35;;
75417;SDS011;63997;52.112;5.420;2024-02-16T04:12:14;3.50;;;1.75;;
75417;SDS011;63997;52.112;5.420;2024-02-16T04:14:41;3.90;;;1.93;;
75417;SDS011;63997;52.112;5.420;2024-02-16T04:17:08;3.80;;;2.17;;
75417;SDS011;63997;52.112;5.420;2024-02-16T04:19:36;3.67;;;1.95;;
75417;SDS011;63997;52.112;5.420;2024-02-16T04:22:03;5.38;;;2.15;;
75417;SDS011;63997;52.112;5.420;2024-02-16T04:24:30;5.95;;;2.08;;
75417;SDS011;63997;52.112;5.420;2024-02-16T04:26:56;4.77;;;1.93;;
75417;SDS011;63997;52.112;5.420;2024-02-16T04:29:23;3.42;;;1.70;;
75417;SDS011;63997;52.112;5.420;2024-02-16T04:31:50;6.00;;;2.20;;
75417;SDS011;63997;52.112;5.420;2024-02-16T04:34:16;4.38;;;1.75;;
75417;SDS011;63997;52.112;5.420;2024-02-16T04:36:43;3.58;;;2.10;;
75417;SDS011;63997;52.112;5.420;2024-02-16T04:39:09;2.43;;;1.83;;
75417;SDS011;63997;52.112;5.420;2024-02-16T04:41:36;4.13;;;1.90;;
75417;SDS011;63997;52.112;5.420;2024-02-16T04:44:03;5.25;;;2.30;;
75417;SDS011;63997;52.112;5.420;2024-02-16T04:46:29;5.40;;;1.98;;
75417;SDS011;63997;52.112;5.420;2024-02-16T04:48:56;6.30;;;2.10;;
75417;SDS011;63997;52.112;5.420;2024-02-16T04:51:23;3.73;;;2.17;;
75417;SDS011;63997;52.112;5.420;2024-02-16T04:53:49;4.55;;;2.40;;
75417;SDS011;63997;52.112;5.420;2024-02-16T04:56:16;3.50;;;1.77;;
75417;SDS011;63997;52.112;5.420;2024-02-16T04:58:42;6.13;;;2.00;;
75417;SDS011;63997;52.112;5.420;2024-02-16T05:01:09;3.38;;;2.03;;
75417;SDS011;63997;52.112;5.420;2024-02-16T05:03:36;4.80;;;2.50;;
75417;SDS011;63997;52.112;5.420;2024-02-16T05:06:03;5.30;;;1.90;;
75417;SDS011;63997;52.112;5.420;2024-02-16T05:08:30;3.10;;;2.20;;
75417;SDS011;63997;52.112;5.420;2024-02-16T05:10:57;5.95;;;2.33;;
75417;SDS011;63997;52.112;5.420;2024-02-16T05:13:23;4.60;;;2.20;;
75417;SDS011;63997;52.112;5.420;2024-02-16T05:15:52;4.73;;;2.03;;
75417;SDS011;63997;52.112;5.420;2024-02-16T05:18:21;4.68;;;2.17;;
75417;SDS011;63997;52.112;5.420;2024-02-16T05:20:48;4.40;;;2.30;;
75417;SDS011;63997;52.112;5.420;2024-02-16T05:23:15;7.40;;;2.47;;
75417;SDS011;63997;52.112;5.420;2024-02-16T05:25:42;4.53;;;1.98;;
75417;SDS011;63997;52.112;5.420;2024-02-16T05:28:08;3.73;;;2.20;;
75417;SDS011;63997;52.112;5.420;2024-02-16T05:30:35;6.97;;;1.83;;
75417;SDS011;63997;52.112;5.420;2024-02-16T05:33:02;4.20;;;2.67;;
75417;SDS011;63997;52.112;5.420;2024-02-16T05:35:29;4.13;;;2.53;;
75417;SDS011;63997;52.112;5.420;2024-02-16T05:38:00;5.82;;;2.58;;
75417;SDS011;63997;52.112;5.420;2024-02-16T05:40:33;5.30;;;1.90;;
75417;SDS011;63997;52.112;5.420;2024-02-16T05:43:11;5.00;;;2.00;;
75417;SDS011;63997;52.112;5.420;2024-02-16T05:45:38;4.45;;;2.33;;
75417;SDS011;63997;52.112;5.420;2024-02-16T05:48:08;3.67;;;1.90;;
75417;SDS011;63997;52.112;5.420;2024-02-16T05:50:36;4.22;;;2.50;;
75417;SDS011;63997;52.112;5.420;2024-02-16T05:53:03;6.30;;;2.10;;
75417;SDS011;63997;52.112;5.420;2024-02-16T05:55:36;3.75;;;2.58;;
75417;SDS011;63997;52.112;5.420;2024-02-16T05:58:03;6.18;;;2.30;;
75417;SDS011;63997;52.112;5.420;2024-02-16T06:00:33;6.65;;;2.35;;
75417;SDS011;63997;52.112;5.420;2024-02-16T06:03:03;4.75;;;2.22;;
75417;SDS011;63997;52.112;5.420;2024-02-16T06:05:31;3.83;;;2.00;;
75417;SDS011;63997;52.112;5.420;2024-02-16T06:08:00;3.95;;;2.08;;
75417;SDS011;63997;52.112;5.420;2024-02-16T06:10:27;3.85;;;2.22;;
75417;SDS011;63997;52.112;5.420;2024-02-16T06:12:53;3.75;;;2.17;;
75417;SDS011;63997;52.112;5.420;2024-02-16T06:15:20;4.75;;;2.28;;
75417;SDS011;63997;52.112;5.420;2024-02-16T06:17:48;3.43;;;2.40;;
75417;SDS011;63997;52.112;5.420;2024-02-16T06:20:16;7.00;;;2.40;;
75417;SDS011;63997;52.112;5.420;2024-02-16T06:22:46;4.38;;;2.30;;
75417;SDS011;63997;52.112;5.420;2024-02-16T06:25:13;5.45;;;1.88;;
75417;SDS011;63997;52.112;5.420;2024-02-16T06:27:40;5.20;;;2.40;;
75417;SDS011;63997;52.112;5.420;2024-02-16T06:30:07;5.07;;;2.30;;
75417;SDS011;63997;52.112;5.420;2024-02-16T06:32:39;6.63;;;2.70;;
75417;SDS011;63997;52.112;5.420;2024-02-16T06:35:08;4.45;;;2.40;;
75417;SDS011;63997;52.112;5.420;2024-02-16T06:37:36;4.55;;;2.67;;
75417;SDS011;63997;52.112;5.420;2024-02-16T06:40:06;3.20;;;2.30;;
75417;SDS011;63997;52.112;5.420;2024-02-16T06:42:36;2.90;;;2.10;;
75417;SDS011;63997;52.112;5.420;2024-02-16T06:45:04;4.10;;;2.38;;
75417;SDS011;63997;52.112;5.420;2024-02-16T06:47:31;3.85;;;2.35;;
75417;SDS011;63997;52.112;5.420;2024-02-16T06:49:58;3.40;;;2.00;;
75417;SDS011;63997;52.112;5.420;2024-02-16T06:52:25;5.75;;;2.30;;
75417;SDS011;63997;52.112;5.420;2024-02-16T06:54:52;3.80;;;2.33;;
75417;SDS011;63997;52.112;5.420;2024-02-16T06:57:19;4.07;;;2.13;;
75417;SDS011;63997;52.112;5.420;2024-02-16T06:59:49;4.13;;;2.17;;
75417;SDS011;63997;52.112;5.420;2024-02-16T07:02:15;4.40;;;2.15;;
75417;SDS011;63997;52.112;5.420;2024-02-16T07:04:44;2.70;;;1.88;;
75417;SDS011;63997;52.112;5.420;2024-02-16T07:07:12;4.20;;;2.47;;
75417;SDS011;63997;52.112;5.420;2024-02-16T07:09:38;6.65;;;2.72;;
75417;SDS011;63997;52.112;5.420;2024-02-16T07:12:06;4.28;;;2.28;;
75417;SDS011;63997;52.112;5.420;2024-02-16T07:14:33;5.25;;;2.15;;
75417;SDS011;63997;52.112;5.420;2024-02-16T07:17:00;2.75;;;1.80;;
75417;SDS011;63997;52.112;5.420;2024-02-16T07:19:27;6.47;;;2.47;;
75417;SDS011;63997;52.112;5.420;2024-02-16T07:21:53;5.85;;;2.22;;
75417;SDS011;63997;52.112;5.420;2024-02-16T07:24:20;5.40;;;2.30;;
75417;SDS011;63997;52.112;5.420;2024-02-16T07:26:48;3.45;;;1.90;;
75417;SDS011;63997;52.112;5.420;2024-02-16T07:29:15;3.65;;;2.00;;
75417;SDS011;63997;52.112;5.420;2024-02-16T07:31:43;4.20;;;2.93;;
75417;SDS011;63997;52.112;5.420;2024-02-16T07:34:11;4.10;;;2.03;;
75417;SDS011;63997;52.112;5.420;2024-02-16T07:36:42;4.07;;;2.28;;
75417;SDS011;63997;52.112;5.420;2024-02-16T07:39:09;5.68;;;2.38;;
75417;SDS011;63997;52.112;5.420;2024-02-16T07:41:39;7.40;;;2.90;;
75417;SDS011;63997;52.112;5.420;2024-02-16T07:44:05;4.73;;;2.63;;
75417;SDS011;63997;52.112;5.420;2024-02-16T07:46:32;6.22;;;2.85;;
75417;SDS011;63997;52.112;5.420;2024-02-16T07:49:01;3.45;;;2.17;;
75417;SDS011;63997;52.112;5.420;2024-02-16T07:51:28;6.15;;;2.33;;
75417;SDS011;63997;52.112;5.420;2024-02-16T07:53:54;4.05;;;3.28;;
75417;SDS011;63997;52.112;5.420;2024-02-16T07:56:21;4.00;;;2.53;;
75417;SDS011;63997;52.112;5.420;2024-02-16T07:58:47;4.50;;;2.53;;
75417;SDS011;63997;52.112;5.420;2024-02-16T08:01:14;5.47;;;2.67;;
75417;SDS011;63997;52.112;5.420;2024-02-16T08:03:43;4.38;;;2.53;;
75417;SDS011;63997;52.112;5.420;2024-02-16T08:06:10;4.57;;;2.00;;
75417;SDS011;63997;52.112;5.420;2024-02-16T08:08:37;7.57;;;2.70;;
75417;SDS011;63997;52.112;5.420;2024-02-16T08:11:03;5.35;;;2.85;;
75417;SDS011;63997;52.112;5.420;2024-02-16T08:13:30;3.45;;;2.33;;
75417;SDS011;63997;52.112;5.420;2024-02-16T08:15:57;7.75;;;2.55;;
75417;SDS011;63997;52.112;5.420;2024-02-16T08:18:23;4.97;;;2.42;;
75417;SDS011;63997;52.112;5.420;2024-02-16T08:20:50;4.40;;;2.40;;
75417;SDS011;63997;52.112;5.420;2024-02-16T08:23:18;3.70;;;2.40;;
75417;SDS011;63997;52.112;5.420;2024-02-16T08:25:44;5.75;;;2.60;;
75417;SDS011;63997;52.112;5.420;2024-02-16T08:28:11;6.38;;;2.75;;
75417;SDS011;63997;52.112;5.420;2024-02-16T08:30:38;6.30;;;2.72;;
75417;SDS011;63997;52.112;5.420;2024-02-16T08:33:07;5.20;;;2.30;;
75417;SDS011;63997;52.112;5.420;2024-02-16T08:35:34;4.95;;;2.83;;
75417;SDS011;63997;52.112;5.420;2024-02-16T08:38:01;4.25;;;2.67;;
75417;SDS011;63997;52.112;5.420;2024-02-16T08:40:28;5.32;;;2.30;;
75417;SDS011;63997;52.112;5.420;2024-02-16T08:42:54;5.57;;;2.92;;
75417;SDS011;63997;52.112;5.420;2024-02-16T08:45:21;4.93;;;2.60;;
75417;SDS011;63997;52.112;5.420;2024-02-16T08:47:48;6.28;;;2.40;;
75417;SDS011;63997;52.112;5.420;2024-02-16T08:50:18;5.38;;;2.92;;
75417;SDS011;63997;52.112;5.420;2024-02-16T08:52:44;4.40;;;2.83;;
75417;SDS011;63997;52.112;5.420;2024-02-16T08:55:11;6.13;;;2.50;;
75417;SDS011;63997;52.112;5.420;2024-02-16T08:57:38;13.60;;;3.03;;
75417;SDS011;63997;52.112;5.420;2024-02-16T09:00:05;5.25;;;2.55;;
75417;SDS011;63997;52.112;5.420;2024-02-16T09:02:33;4.00;;;2.38;;
75417;SDS011;63997;52.112;5.420;2024-02-16T09:05:00;6.32;;;2.75;;
75417;SDS011;63997;52.112;5.420;2024-02-16T09:07:26;5.20;;;2.92;;
75417;SDS011;63997;52.112;5.420;2024-02-16T09:09:53;4.60;;;2.70;;
75417;SDS011;63997;52.112;5.420;2024-02-16T09:12:20;13.80;;;3.05;;
75417;SDS011;63997;52.112;5.420;2024-02-16T09:14:47;8.50;;;2.80;;
75417;SDS011;63997;52.112;5.420;2024-02-16T09:17:13;5.10;;;2.63;;
75417;SDS011;63997;52.112;5.420;2024-02-16T09:19:40;8.90;;;2.75;;
75417;SDS011;63997;52.112;5.420;2024-02-16T09:22:07;4.73;;;3.20;;
75417;SDS011;63997;52.112;5.420;2024-02-16T09:24:33;7.50;;;2.58;;
75417;SDS011;63997;52.112;5.420;2024-02-16T09:27:00;4.50;;;3.00;;
75417;SDS011;63997;52.112;5.420;2024-02-16T09:29:30;5.30;;;3.00;;
75417;SDS011;63997;52.112;5.420;2024-02-16T09:31:57;5.03;;;3.00;;
75417;SDS011;63997;52.112;5.420;2024-02-16T09:34:24;4.63;;;3.10;;
75417;SDS011;63997;52.112;5.420;2024-02-16T09:36:51;5.65;;;3.38;;
75417;SDS011;63997;52.112;5.420;2024-02-16T09:39:18;8.90;;;3.15;;
75417;SDS011;63997;52.112;5.420;2024-02-16T09:41:44;5.85;;;2.70;;
75417;SDS011;63997;52.112;5.420;2024-02-16T09:44:17;6.68;;;3.15;;
75417;SDS011;63997;52.112;5.420;2024-02-16T09:46:43;6.83;;;2.87;;
75417;SDS011;63997;52.112;5.420;2024-02-16T09:49:10;7.43;;;3.70;;
75417;SDS011;63997;52.112;5.420;2024-02-16T09:51:38;8.27;;;3.47;;
75417;SDS011;63997;52.112;5.420;2024-02-16T09:54:05;5.18;;;2.97;;
75417;SDS011;63997;52.112;5.420;2024-02-16T09:56:33;4.90;;;3.10;;
75417;SDS011;63997;52.112;5.420;2024-02-16T09:59:00;8.23;;;3.40;;
75417;SDS011;63997;52.112;5.420;2024-02-16T10:01:26;9.02;;;3.50;;
75417;SDS011;63997;52.112;5.420;2024-02-16T10:03:54;5.03;;;3.10;;
75417;SDS011;63997;52.112;5.420;2024-02-16T10:06:53;8.00;;;3.60;;
75417;SDS011;63997;52.112;5.420;2024-02-16T10:09:27;5.45;;;3.35;;
75417;SDS011;63997;52.112;5.420;2024-02-16T10:11:58;8.27;;;3.90;;
75417;SDS011;63997;52.112;5.420;2024-02-16T10:14:25;5.25;;;3.60;;
75417;SDS011;63997;52.112;5.420;2024-02-16T10:17:02;5.68;;;3.58;;
75417;SDS011;63997;52.112;5.420;2024-02-16T10:19:30;10.13;;;3.85;;
75417;SDS011;63997;52.112;5.420;2024-02-16T10:22:12;6.22;;;3.47;;
75417;SDS011;63997;52.112;5.420;2024-02-16T10:24:40;9.07;;;3.93;;
75417;SDS011;63997;52.112;5.420;2024-02-16T10:27:14;7.28;;;4.07;;
75417;SDS011;63997;52.112;5.420;2024-02-16T10:29:46;8.60;;;3.47;;
75417;SDS011;63997;52.112;5.420;2024-02-16T10:32:17;6.88;;;3.88;;
75417;SDS011;63997;52.112;5.420;2024-02-16T10:34:45;5.97;;;3.50;;
75417;SDS011;63997;52.112;5.420;2024-02-16T10:37:13;7.17;;;3.53;;
75417;SDS011;63997;52.112;5.420;2024-02-16T10:39:42;10.93;;;4.45;;
75417;SDS011;63997;52.112;5.420;2024-02-16T10:42:11;8.23;;;3.53;;
75417;SDS011;63997;52.112;5.420;2024-02-16T10:44:40;9.50;;;4.10;;
75417;SDS011;63997;52.112;5.420;2024-02-16T10:47:09;6.35;;;3.90;;
75417;SDS011;63997;52.112;5.420;2024-02-16T10:49:35;9.77;;;4.10;;
75417;SDS011;63997;52.112;5.420;2024-02-16T10:52:02;7.45;;;3.83;;
75417;SDS011;63997;52.112;5.420;2024-02-16T10:54:33;7.90;;;4.30;;
75417;SDS011;63997;52.112;5.420;2024-02-16T10:57:07;10.13;;;4.28;;
75417;SDS011;63997;52.112;5.420;2024-02-16T10:59:44;9.55;;;4.78;;
75417;SDS011;63997;52.112;5.420;2024-02-16T11:02:11;7.43;;;4.57;;
75417;SDS011;63997;52.112;5.420;2024-02-16T11:04:38;8.57;;;4.65;;
75417;SDS011;63997;52.112;5.420;2024-02-16T11:07:14;9.57;;;4.45;;
75417;SDS011;63997;52.112;5.420;2024-02-16T11:09:43;8.13;;;4.93;;
75417;SDS011;63997;52.112;5.420;2024-02-16T11:12:13;6.00;;;5.18;;
75417;SDS011;63997;52.112;5.420;2024-02-16T11:14:46;9.07;;;5.83;;
75417;SDS011;63997;52.112;5.420;2024-02-16T11:17:23;10.52;;;5.90;;
75417;SDS011;63997;52.112;5.420;2024-02-16T11:19:50;7.05;;;5.05;;
75417;SDS011;63997;52.112;5.420;2024-02-16T11:22:20;7.60;;;5.38;;
75417;SDS011;63997;52.112;5.420;2024-02-16T11:24:48;8.95;;;5.70;;
75417;SDS011;63997;52.112;5.420;2024-02-16T11:27:20;7.33;;;5.40;;
75417;SDS011;63997;52.112;5.420;2024-02-16T11:29:48;7.97;;;5.68;;
75417;SDS011;63997;52.112;5.420;2024-02-16T11:32:17;8.50;;;5.13;;
75417;SDS011;63997;52.112;5.420;2024-02-16T11:34:44;8.23;;;5.15;;
75417;SDS011;63997;52.112;5.420;2024-02-16T11:39:42;8.90;;;6.47;;
75417;SDS011;63997;52.112;5.420;2024-02-16T11:42:12;6.45;;;5.35;;
75417;SDS011;63997;52.112;5.420;2024-02-16T11:44:40;8.70;;;4.97;;
75417;SDS011;63997;52.112;5.420;2024-02-16T11:47:25;9.85;;;5.45;;
75417;SDS011;63997;52.112;5.420;2024-02-16T11:52:31;10.30;;;5.83;;
75417;SDS011;63997;52.112;5.420;2024-02-16T11:54:59;9.20;;;6.10;;
75417;SDS011;63997;52.112;5.420;2024-02-16T11:57:28;8.05;;;6.28;;
75417;SDS011;63997;52.112;5.420;2024-02-16T11:59:55;8.85;;;6.00;;
75417;SDS011;63997;52.112;5.420;2024-02-16T12:02:23;9.82;;;6.65;;
75417;SDS011;63997;52.112;5.420;2024-02-16T12:04:59;9.63;;;6.70;;
75417;SDS011;63997;52.112;5.420;2024-02-16T12:07:31;10.27;;;6.13;;
75417;SDS011;63997;52.112;5.420;2024-02-16T12:10:01;9.15;;;6.47;;
75417;SDS011;63997;52.112;5.420;2024-02-16T12:12:31;12.73;;;7.25;;
75417;SDS011;63997;52.112;5.420;2024-02-16T12:14:58;11.32;;;5.55;;
75417;SDS011;63997;52.112;5.420;2024-02-16T12:17:25;10.93;;;6.70;;
75417;SDS011;63997;52.112;5.420;2024-02-16T12:19:52;9.05;;;5.80;;
75417;SDS011;63997;52.112;5.420;2024-02-16T12:22:21;7.93;;;5.93;;
75417;SDS011;63997;52.112;5.420;2024-02-16T12:24:49;12.68;;;5.10;;
75417;SDS011;63997;52.112;5.420;2024-02-16T12:27:17;8.73;;;4.82;;
75417;SDS011;63997;52.112;5.420;2024-02-16T12:29:44;6.90;;;4.80;;
75417;SDS011;63997;52.112;5.420;2024-02-16T12:32:10;6.28;;;4.50;;
75417;SDS011;63997;52.112;5.420;2024-02-16T12:34:37;8.32;;;4.47;;
75417;SDS011;63997;52.112;5.420;2024-02-16T12:37:05;6.85;;;4.47;;
75417;SDS011;63997;52.112;5.420;2024-02-16T12:39:34;5.75;;;3.47;;
75417;SDS011;63997;52.112;5.420;2024-02-16T12:42:01;6.67;;;3.40;;
75417;SDS011;63997;52.112;5.420;2024-02-16T12:44:28;4.70;;;3.22;;
75417;SDS011;63997;52.112;5.420;2024-02-16T12:46:54;3.17;;;1.80;;
75417;SDS011;63997;52.112;5.420;2024-02-16T12:49:21;4.63;;;1.95;;
75417;SDS011;63997;52.112;5.420;2024-02-16T12:51:49;3.55;;;1.55;;
75417;SDS011;63997;52.112;5.420;2024-02-16T12:54:16;4.13;;;1.70;;
75417;SDS011;63997;52.112;5.420;2024-02-16T12:56:45;2.22;;;1.55;;
75417;SDS011;63997;52.112;5.420;2024-02-16T12:59:12;2.00;;;1.40;;
75417;SDS011;63997;52.112;5.420;2024-02-16T13:01:39;3.63;;;1.45;;
75417;SDS011;63997;52.112;5.420;2024-02-16T13:04:08;2.85;;;1.30;;
75417;SDS011;63997;52.112;5.420;2024-02-16T13:06:35;1.70;;;1.10;;
75417;SDS011;63997;52.112;5.420;2024-02-16T13:09:03;2.17;;;1.33;;
75417;SDS011;63997;52.112;5.420;2024-02-16T13:11:31;2.63;;;1.60;;
75417;SDS011;63997;52.112;5.420;2024-02-16T13:14:00;1.30;;;0.98;;
75417;SDS011;63997;52.112;5.420;2024-02-16T13:16:27;1.98;;;1.50;;
75417;SDS011;63997;52.112;5.420;2024-02-16T13:18:53;1.83;;;1.20;;
75417;SDS011;63997;52.112;5.420;2024-02-16T13:21:20;2.45;;;1.67;;
75417;SDS011;63997;52.112;5.420;2024-02-16T13:23:47;2.83;;;1.38;;
75417;SDS011;63997;52.112;5.420;2024-02-16T13:26:14;2.20;;;1.30;;
75417;SDS011;63997;52.112;5.420;2024-02-16T13:28:41;1.50;;;1.40;;
75417;SDS011;63997;52.112;5.420;2024-02-16T13:31:07;1.40;;;1.10;;
75417;SDS011;63997;52.112;5.420;2024-02-16T13:33:36;2.83;;;1.50;;
75417;SDS011;63997;52.112;5.420;2024-02-16T13:36:03;1.90;;;1.00;;
75417;SDS011;63997;52.112;5.420;2024-02-16T13:38:31;2.17;;;1.20;;
75417;SDS011;63997;52.112;5.420;2024-02-16T13:40:58;1.70;;;1.23;;
75417;SDS011;63997;52.112;5.420;2024-02-16T13:43:24;2.63;;;1.30;;
75417;SDS011;63997;52.112;5.420;2024-02-16T13:45:52;2.63;;;1.90;;
75417;SDS011;63997;52.112;5.420;2024-02-16T13:48:20;2.60;;;1.58;;
75417;SDS011;63997;52.112;5.420;2024-02-16T13:50:47;3.55;;;1.02;;
75417;SDS011;63997;52.112;5.420;2024-02-16T13:53:14;3.67;;;1.52;;
75417;SDS011;63997;52.112;5.420;2024-02-16T13:55:46;4.50;;;1.50;;
75417;SDS011;63997;52.112;5.420;2024-02-16T13:58:13;2.85;;;1.40;;
75417;SDS011;63997;52.112;5.420;2024-02-16T14:00:39;2.72;;;1.20;;
75417;SDS011;63997;52.112;5.420;2024-02-16T14:03:06;1.52;;;1.10;;
75417;SDS011;63997;52.112;5.420;2024-02-16T14:05:39;3.33;;;1.30;;
75417;SDS011;63997;52.112;5.420;2024-02-16T14:08:07;4.57;;;1.30;;
75417;SDS011;63997;52.112;5.420;2024-02-16T14:10:35;2.25;;;1.08;;
75417;SDS011;63997;52.112;5.420;2024-02-16T14:13:02;2.28;;;1.23;;
75417;SDS011;63997;52.112;5.420;2024-02-16T14:15:29;1.10;;;0.98;;
75417;SDS011;63997;52.112;5.420;2024-02-16T14:17:58;4.53;;;1.23;;
75417;SDS011;63997;52.112;5.420;2024-02-16T14:20:31;2.90;;;1.33;;
75417;SDS011;63997;52.112;5.420;2024-02-16T14:22:58;4.18;;;1.67;;
75417;SDS011;63997;52.112;5.420;2024-02-16T14:25:24;3.00;;;1.45;;
75417;SDS011;63997;52.112;5.420;2024-02-16T14:27:52;2.85;;;1.65;;
75417;SDS011;63997;52.112;5.420;2024-02-16T14:30:18;3.05;;;2.00;;
75417;SDS011;63997;52.112;5.420;2024-02-16T14:32:46;1.97;;;1.63;;
75417;SDS011;63997;52.112;5.420;2024-02-16T14:35:12;1.83;;;1.33;;
75417;SDS011;63997;52.112;5.420;2024-02-16T14:37:39;3.85;;;1.50;;
75417;SDS011;63997;52.112;5.420;2024-02-16T14:40:06;3.60;;;1.73;;
75417;SDS011;63997;52.112;5.420;2024-02-16T14:42:36;3.45;;;1.75;;
75417;SDS011;63997;52.112;5.420;2024-02-16T14:45:05;5.03;;;1.93;;
75417;SDS011;63997;52.112;5.420;2024-02-16T14:47:36;3.85;;;1.70;;
75417;SDS011;63997;52.112;5.420;2024-02-16T14:50:06;2.45;;;1.80;;
75417;SDS011;63997;52.112;5.420;2024-02-16T14:52:34;3.38;;;1.85;;
75417;SDS011;63997;52.112;5.420;2024-02-16T14:55:01;3.75;;;2.08;;
75417;SDS011;63997;52.112;5.420;2024-02-16T14:57:27;6.93;;;2.57;;